Hope, New Jersey
Current Conditions -  °F | °C
As of 7:53 PM on Saturday 25 Oct 2014 (Local Time) from KSMQ Reporting Station
Overcast Overcast  
Wind Chill: 56°   Ceiling: 7000
Heat Index: 56°   Visibility: 10mi
Dew Point: 46°   Wind: 0mph
Humidity: 69%   Direction: NA
Pressure: 29.63"   Gusts: NA
Location:  40.91°N, 74.97°W
Report Text: KSMQ 252353Z AUTO 00000KT 10SM OVC070 13/08 A2963 RMK AO2 SLP036 T01330078 10206 20133 56008
Loading
Personal Weather Stations






























Interactive Weather Map
Tropical Storm Tracking
New forecast layout! Learn more

10-Day Weather Forecast

Advertisements
Track Severe Weather on mobile